METAR Data
IDs: Format: Raw Decoded Include TAF

Data at: 1418 UTC 10 Aug 2022

KLRU 101415Z AUTO 04008KT 10SM CLR 24/15 A3027 RMK AO2 T02350147

KLRU 101132Z 1012/1112 29008KT P6SM BKN100
  FM102200 11010KT P6SM VCTS SCT080CB BKN150
  FM110300 08007KT P6SM SCT080 BKN200